Time;durP1;ratioP1;P1;durP2;ratioP2;P2;SDS_P1;SDS_P2;PMS_P1;PMS_P2;Temp;Humidity;BMP_temperature;BMP_pressure;BME280_temperature;BME280_humidity;BME280_pressure;Samples;Min_cycle;Max_cycle;Signal;HPM_P1;HPM_P2
2022/05/16 00:01:09;;;;;;;3.33;1.73;;;;;;;16.54;57.23;100044.28;5082622;28;19913;-80
2022/05/16 00:03:34;;;;;;;;;;;;;;;16.59;57.13;100047.06;5081434;28;20108;-80
2022/05/16 00:06:00;;;;;;;4.03;1.50;;;;;;;16.55;57.00;100038.56;5081752;28;19908;-80
2022/05/16 00:08:25;;;;;;;;;;;;;;;16.54;57.08;100045.09;5080249;28;20040;-81
2022/05/16 00:10:51;;;;;;;5.70;1.83;;;;;;;16.52;56.74;100043.69;5095652;28;19990;-81
2022/05/16 00:13:16;;;;;;;;;;;;;;;16.52;57.02;100044.53;5100350;28;20030;-80
2022/05/16 00:15:41;;;;;;;3.42;1.70;;;;;;;16.72;56.45;100043.16;5100690;28;20374;-80
2022/05/16 00:18:07;;;;;;;;;;;;;;;16.69;56.42;100046.38;5105441;28;20044;-81
2022/05/16 00:20:33;;;;;;;3.05;1.55;;;;;;;16.68;56.36;100037.38;5108376;28;19973;-79
2022/05/16 00:22:58;;;;;;;;;;;;;;;16.57;56.67;100032.88;5089641;28;20028;-80
2022/05/16 00:25:23;;;;;;;4.67;1.83;;;;;;;16.63;56.64;100031.91;5106654;28;19919;-81
2022/05/16 00:27:49;;;;;;;4.72;1.90;;;;;;;16.72;56.43;100030.38;5104199;28;20350;-80
2022/05/16 00:30:18;;;;;;;3.95;1.40;;;;;;;16.69;56.42;100024.63;5106139;28;20066;-80
2022/05/16 00:32:45;;;;;;;3.88;1.55;;;;;;;16.60;56.98;100033.22;5088803;28;20068;-81
2022/05/16 00:35:11;;;;;;;;;;;;;;;16.66;56.43;100032.19;5106591;28;20032;-81
2022/05/16 00:37:36;;;;;;;5.63;1.65;;;;;;;16.59;57.17;100031.56;5106301;28;20483;-80
2022/05/16 00:40:05;;;;;;;3.85;1.90;;;;;;;16.49;56.90;100027.88;5105569;28;20058;-81
2022/05/16 00:42:30;;;;;;;5.32;1.50;;;;;;;16.57;57.14;100027.44;5105383;28;20043;-81
2022/05/16 00:44:56;;;;;;;3.53;1.60;;;;;;;16.39;57.35;100025.03;5105300;28;20031;-80
2022/05/16 00:47:21;;;;;;;;;;;;;;;16.22;57.88;100020.47;5107090;28;20028;-80
2022/05/16 00:49:49;;;;;;;4.30;1.50;;;;;;;16.39;57.88;100014.16;5105932;28;19912;-79
2022/05/16 00:52:19;;;;;;;5.32;1.60;;;;;;;16.42;57.85;100017.22;5105352;28;20043;-80
2022/05/16 00:54:56;;;;;;;4.80;1.80;;;;;;;16.26;58.12;100016.19;5105108;28;20210;-80
2022/05/16 00:57:34;;;;;;;5.80;1.67;;;;;;;16.33;58.16;100016.81;5102361;28;20483;-80
2022/05/16 01:00:18;;;;;;;4.57;1.60;;;;;;;16.20;58.22;100016.38;5101489;28;20031;-79
2022/05/16 01:05:33;;;;;;;5.22;1.92;;;;;;;16.11;59.16;100013.28;5103610;28;20050;-80
2022/05/16 01:08:02;;;;;;;3.55;1.90;;;;;;;15.92;59.75;100010.03;5102804;28;20020;-81
2022/05/16 01:10:28;;;;;;;5.53;1.85;;;;;;;15.90;59.85;100004.00;5103404;28;20058;-80
2022/05/16 01:12:54;;;;;;;4.78;1.70;;;;;;;15.84;60.03;100010.44;5103837;28;20038;-80
2022/05/16 01:15:31;;;;;;;5.35;2.22;;;;;;;15.90;59.89;99995.88;5103141;28;20028;-80
2022/05/16 01:17:56;;;;;;;8.43;1.98;;;;;;;15.91;59.77;99996.69;5104989;28;20028;-80
2022/05/16 01:20:23;;;;;;;3.95;1.83;;;;;;;15.93;60.14;99992.66;5104206;28;20052;-80
2022/05/16 01:22:52;;;;;;;6.38;2.17;;;;;;;15.86;60.26;99993.88;5103687;28;20051;-81
2022/05/16 01:25:29;;;;;;;4.93;2.53;;;;;;;15.87;60.34;99990.94;5086029;28;20031;-81
2022/05/16 01:28:04;;;;;;;4.03;2.03;;;;;;;15.96;60.04;99985.88;5104600;28;20074;-80
2022/05/16 01:30:47;;;;;;;4.57;1.63;;;;;;;15.87;60.01;99987.38;5103477;28;20032;-81
2022/05/16 01:33:20;;;;;;;4.00;1.90;;;;;;;15.83;60.51;99983.50;5102149;28;20024;-81
2022/05/16 01:35:46;;;;;;;4.22;1.50;;;;;;;16.01;60.07;99990.56;5102784;28;20031;-81
2022/05/16 01:38:18;;;;;;;6.88;2.10;;;;;;;15.85;60.35;99992.25;5103379;28;20028;-81
2022/05/16 01:40:48;;;;;;;4.22;1.75;;;;;;;15.80;60.40;99984.84;5102945;28;20046;-81
2022/05/16 01:43:14;;;;;;;3.22;1.52;;;;;;;15.78;60.89;99980.72;5103536;28;20386;-81
2022/05/16 01:45:42;;;;;;;4.50;1.73;;;;;;;15.74;60.94;99980.41;5103586;28;20119;-81
2022/05/16 01:48:07;;;;;;;4.13;1.92;;;;;;;15.74;60.96;99976.88;5103127;28;20029;-80
2022/05/16 01:50:33;;;;;;;4.20;2.08;;;;;;;15.77;60.66;99990.75;5103575;28;20036;-81
2022/05/16 01:52:58;;;;;;;;;;;;;;;15.83;60.49;99980.78;5104549;28;20028;-82
2022/05/16 01:55:24;;;;;;;5.40;2.30;;;;;;;15.78;60.71;99980.72;5105415;28;19934;-81
2022/05/16 01:57:49;;;;;;;6.05;1.90;;;;;;;15.83;60.50;99978.09;5104279;28;20042;-81
2022/05/16 02:00:16;;;;;;;3.78;1.70;;;;;;;15.81;60.85;99972.91;5104366;28;20028;-82
2022/05/16 02:02:42;;;;;;;4.75;2.10;;;;;;;15.86;60.80;99975.69;5087652;28;20356;-81
2022/05/16 02:05:19;;;;;;;3.95;2.15;;;;;;;15.89;60.35;99968.94;5105020;28;20028;-80
2022/05/16 02:07:45;;;;;;;5.97;2.45;;;;;;;15.83;60.48;99975.38;5086963;28;20048;-81
2022/05/16 02:10:12;;;;;;;3.83;1.90;;;;;;;15.80;60.47;99967.72;5084008;28;20104;-81
2022/05/16 02:12:37;;;;;;;4.90;1.75;;;;;;;15.88;60.47;99959.16;5083870;28;20036;-81
2022/05/16 02:15:05;;;;;;;3.83;1.58;;;;;;;15.93;60.34;99954.63;5083517;28;20036;-81
2022/05/16 02:17:30;;;;;;;5.80;1.90;;;;;;;16.05;59.91;99959.09;5085655;28;20060;-82
2022/05/16 02:19:55;;;;;;;3.63;1.70;;;;;;;16.19;59.13;99955.75;5084902;28;20082;-81
2022/05/16 02:25:05;;;;;;;4.38;2.15;;;;;;;16.07;59.77;99940.66;5083728;28;20047;-82
2022/05/16 02:27:31;;;;;;;3.88;1.70;;;;;;;15.97;59.63;99944.84;5084293;28;20021;-82
2022/05/16 02:29:57;;;;;;;4.28;1.58;;;;;;;16.11;59.75;99944.50;5082330;28;20044;-81
2022/05/16 02:32:23;;;;;;;3.85;1.70;;;;;;;16.10;59.41;99940.97;5083267;28;20073;-82
2022/05/16 02:34:48;;;;;;;;;;;;;;;16.07;59.65;99933.31;5084319;28;20043;-83
2022/05/16 02:37:14;;;;;;;5.83;2.07;;;;;;;16.02;59.76;99932.41;5084049;28;19920;-82
2022/05/16 02:39:44;;;;;;;3.80;1.57;;;;;;;15.90;60.00;99929.84;5084847;28;20738;-82
2022/05/16 02:42:11;;;;;;;4.82;1.83;;;;;;;15.86;60.28;99923.25;5083290;28;20029;-82
2022/05/16 02:44:38;;;;;;;5.00;1.67;;;;;;;15.84;60.53;99919.97;5082313;28;20025;-82
2022/05/16 02:47:05;;;;;;;3.92;1.90;;;;;;;15.75;60.73;99922.31;5083137;28;20104;-81
2022/05/16 02:49:31;;;;;;;3.60;1.77;;;;;;;15.73;61.10;99918.19;5083654;28;20036;-81
2022/05/16 02:51:57;;;;;;;4.95;1.90;;;;;;;15.65;61.31;99911.28;5083752;28;20383;-82
2022/05/16 02:54:23;;;;;;;6.07;1.80;;;;;;;15.68;61.25;99909.97;5082647;28;20039;-80
2022/05/16 02:56:49;;;;;;;6.20;2.38;;;;;;;15.71;60.71;99906.75;5080281;28;20054;-80
2022/05/16 02:59:14;;;;;;;;;;;;;;;15.78;61.44;99910.09;5078734;28;20032;-82
2022/05/16 03:01:39;;;;;;;11.00;2.13;;;;;;;15.61;61.54;99913.66;5078225;28;19935;-81
2022/05/16 03:04:05;;;;;;;;;;;;;;;15.48;62.22;99911.28;5079113;28;20029;-81
2022/05/16 03:06:31;;;;;;;5.25;2.00;;;;;;;15.48;62.13;99897.72;5078572;28;19918;-80
2022/05/16 03:08:56;;;;;;;;;;;;;;;15.42;62.39;99898.69;5080056;28;20458;-81
2022/05/16 03:11:22;;;;;;;5.68;2.03;;;;;;;15.44;62.19;99898.44;5099406;28;19985;-81
2022/05/16 03:13:48;;;;;;;4.38;2.17;;;;;;;15.38;62.23;99900.28;5099571;28;20030;-81
2022/05/16 03:16:13;;;;;;;4.15;1.73;;;;;;;15.32;62.55;99904.00;5101230;28;20036;-81
2022/05/16 03:18:39;;;;;;;4.78;1.95;;;;;;;15.31;62.75;99899.63;5101125;28;20028;-81
2022/05/16 03:21:04;;;;;;;;;;;;;;;15.21;63.29;99904.91;5102430;28;20032;-81
2022/05/16 03:23:29;;;;;;;6.37;1.73;;;;;;;15.23;63.39;99898.13;5100304;28;19943;-80
2022/05/16 03:25:55;;;;;;;6.33;2.47;;;;;;;15.25;63.54;99901.44;5101215;28;20270;-81
2022/05/16 03:28:20;;;;;;;4.90;2.20;;;;;;;15.29;63.57;99899.06;5100730;28;20084;-81
2022/05/16 03:30:46;;;;;;;;;;;;;;;15.32;63.10;99900.44;5101095;28;20028;-82
2022/05/16 03:33:12;;;;;;;4.10;1.90;;;;;;;15.28;63.67;99903.66;5082802;28;19919;-82
2022/05/16 03:35:37;;;;;;;3.88;2.10;;;;;;;15.21;63.80;99910.34;5101228;28;20032;-82
2022/05/16 03:38:03;;;;;;;5.05;1.98;;;;;;;15.16;64.63;99905.66;5100795;28;20509;-80
2022/05/16 03:40:45;;;;;;;3.83;1.63;;;;;;;15.02;65.17;99908.94;5099879;28;20150;-83
2022/05/16 03:43:13;;;;;;;4.93;2.17;;;;;;;14.97;65.14;99908.84;5100237;28;20043;-84
2022/05/16 03:45:39;;;;;;;5.20;1.80;;;;;;;14.90;65.48;99901.69;5090243;28;20032;-81
2022/05/16 03:48:05;;;;;;;4.22;1.90;;;;;;;14.86;66.04;99899.72;5093309;28;20031;-82
2022/05/16 03:50:31;;;;;;;;;;;;;;;14.87;65.63;99899.47;5094836;28;20044;-83
2022/05/16 03:52:59;;;;;;;5.32;1.90;;;;;;;15.03;65.33;99897.84;5108637;28;19908;-81
2022/05/16 03:55:28;;;;;;;7.28;2.08;;;;;;;15.01;65.30;99899.16;5093461;28;20032;-83
2022/05/16 03:57:54;;;;;;;4.15;2.00;;;;;;;15.04;65.04;99898.66;5112728;28;20066;-82
2022/05/16 04:00:20;;;;;;;4.53;1.83;;;;;;;15.09;64.94;99898.72;5112815;28;20438;-83
2022/05/16 04:02:46;;;;;;;6.72;1.88;;;;;;;15.09;64.93;99901.44;5106970;28;20028;-82
2022/05/16 04:05:15;;;;;;;;;;;;;;;15.14;65.05;99905.06;5107272;28;20043;-82
2022/05/16 04:07:41;;;;;;;6.50;2.08;;;;;;;15.12;64.57;99906.38;5106708;28;19919;-80
2022/05/16 04:10:07;;;;;;;5.07;2.10;;;;;;;15.15;64.73;99901.28;5106426;28;20059;-81
2022/05/16 04:12:32;;;;;;;5.57;2.38;;;;;;;15.29;63.76;99899.06;5106597;28;20043;-80
2022/05/16 04:14:58;;;;;;;4.93;1.90;;;;;;;15.50;62.97;99902.88;5104518;28;20427;-79
2022/05/16 04:17:23;;;;;;;4.63;1.83;;;;;;;15.53;62.96;99895.06;5104307;28;20024;-80
2022/05/16 04:19:48;;;;;;;9.23;1.80;;;;;;;15.57;62.65;99890.81;5104576;28;20028;-81
2022/05/16 04:22:14;;;;;;;;;;;;;;;15.61;62.72;99902.81;5086979;28;20103;-80
2022/05/16 04:24:39;;;;;;;4.10;1.77;;;;;;;15.61;62.18;99900.09;5103995;28;20343;-81
2022/05/16 04:27:05;;;;;;;;;;;;;;;15.58;62.77;99895.19;5105657;28;20028;-81
2022/05/16 04:29:30;;;;;;;4.95;2.00;;;;;;;15.63;62.30;99908.00;5104475;28;19912;-80
2022/05/16 04:31:56;;;;;;;5.60;1.98;;;;;;;15.66;62.25;99898.53;5104306;28;20040;-80
2022/05/16 04:34:21;;;;;;;4.30;2.13;;;;;;;15.66;61.88;99895.81;5103696;28;20035;-80
2022/05/16 04:36:47;;;;;;;5.50;2.15;;;;;;;15.68;62.36;99899.91;5102400;28;20024;-79
2022/05/16 04:39:12;;;;;;;;;;;;;;;15.71;62.11;99895.88;5101786;28;20478;-79
2022/05/16 04:44:22;;;;;;;6.38;1.95;;;;;;;15.91;60.81;99888.00;5100856;28;20109;-79
2022/05/16 04:46:47;;;;;;;5.67;2.33;;;;;;;15.98;60.31;99888.63;5102930;28;20437;-79
2022/05/16 04:49:12;;;;;;;;;;;;;;;16.00;60.63;99897.34;5103348;28;20024;-81
2022/05/16 04:51:38;;;;;;;4.70;1.60;;;;;;;16.04;60.73;99884.91;5085266;28;19943;-80
2022/05/16 04:54:03;;;;;;;4.63;2.25;;;;;;;16.09;60.88;99887.69;5087128;28;20269;-81
2022/05/16 04:56:29;;;;;;;5.18;2.45;;;;;;;16.15;60.71;99883.09;5084347;28;20039;-82
2022/05/16 04:58:54;;;;;;;;;;;;;;;16.23;60.56;99885.38;5101081;28;20170;-80
2022/05/16 05:01:19;;;;;;;4.07;1.43;;;;;;;16.28;60.46;99896.31;5100682;28;19934;-80
2022/05/16 05:03:45;;;;;;;5.53;1.80;;;;;;;16.47;59.08;99892.19;5102428;28;20318;-80
2022/05/16 05:06:10;;;;;;;3.90;1.73;;;;;;;16.57;58.29;99889.56;5102035;28;20708;-79
2022/05/16 05:08:35;;;;;;;;;;;;;;;16.67;58.98;99889.66;5102286;28;20032;-80
2022/05/16 05:16:30;;;;;;;5.18;1.88;;;;;;;17.02;58.88;99899.22;5080826;28;20086;-80
2022/05/16 05:18:56;;;;;;;5.03;1.98;;;;;;;17.12;58.47;99893.88;5079773;28;20035;-79
2022/05/16 05:21:21;;;;;;;5.85;2.00;;;;;;;17.22;58.85;99899.38;5081364;28;20029;-79
2022/05/16 05:23:46;;;;;;;;;;;;;;;17.29;58.52;99901.91;5081608;28;20041;-80
2022/05/16 05:26:12;;;;;;;7.45;3.30;;;;;;;17.36;58.06;99894.34;5079806;28;20485;-79
2022/05/16 05:28:38;;;;;;;;;;;;;;;17.54;56.37;99895.81;5081343;28;20028;-80
2022/05/16 05:31:07;;;;;;;4.93;1.80;;;;;;;17.69;56.61;99899.47;5078321;28;20366;-79
2022/05/16 05:33:33;;;;;;;5.13;1.77;;;;;;;17.92;55.83;99906.38;5079550;28;20094;-80
2022/05/16 05:35:58;;;;;;;;;;;;;;;17.97;56.38;99920.03;5079987;28;20024;-79
2022/05/16 05:38:24;;;;;;;4.67;2.10;;;;;;;18.10;55.77;99921.44;5079540;28;19920;-79
2022/05/16 05:40:50;;;;;;;;;;;;;;;18.13;55.36;99918.19;5082038;28;20052;-85
2022/05/16 05:43:15;;;;;;;5.43;1.98;;;;;;;18.19;54.39;99913.59;5082810;28;19912;-85
2022/05/16 05:45:40;;;;;;;;;;;;;;;18.28;55.12;99914.69;5083099;28;20048;-85
2022/05/16 05:48:06;;;;;;;3.60;1.63;;;;;;;18.39;55.23;99914.47;5082731;28;19920;-85
2022/05/16 05:50:32;;;;;;;;;;;;;;;18.50;54.94;99920.75;5082478;28;20242;-84
2022/05/16 05:52:58;;;;;;;3.60;1.47;;;;;;;18.60;53.83;99920.84;5082068;28;19966;-85
2022/05/16 05:55:23;;;;;;;4.18;1.67;;;;;;;18.70;54.66;99911.84;5082846;28;20039;-85
2022/05/16 05:57:49;;;;;;;3.67;1.50;;;;;;;18.76;53.69;99908.03;5083020;28;20044;-85
2022/05/16 06:00:15;;;;;;;;;;;;;;;18.85;53.29;99914.56;5082890;28;20035;-83
2022/05/16 06:02:41;;;;;;;4.30;2.05;;;;;;;18.87;52.45;99915.13;5083518;28;19919;-84
2022/05/16 06:05:12;;;;;;;5.15;2.30;;;;;;;18.90;52.54;99916.50;5081960;28;20028;-83
2022/05/16 06:07:37;;;;;;;8.65;2.13;;;;;;;18.92;53.17;99915.16;5083087;28;20056;-83
2022/05/16 06:10:03;;;;;;;3.88;1.80;;;;;;;19.04;52.93;99918.41;5080010;28;20051;-84
2022/05/16 06:12:31;;;;;;;4.13;1.92;;;;;;;19.00;53.73;99914.59;5079950;28;20123;-83
2022/05/16 06:14:56;;;;;;;5.32;1.95;;;;;;;19.06;53.94;99913.50;5081239;28;20025;-85
2022/05/16 06:17:21;;;;;;;5.10;2.13;;;;;;;19.11;53.23;99911.88;5080957;28;20052;-85
2022/05/16 06:19:47;;;;;;;;;;;;;;;19.10;53.02;99921.16;5081861;28;20409;-86
2022/05/16 06:22:12;;;;;;;7.45;1.75;;;;;;;19.06;54.03;99921.69;5080852;28;19922;-84
2022/05/16 06:27:23;;;;;;;6.72;2.22;;;;;;;19.12;55.02;99921.72;5081768;28;20162;-85
2022/05/16 06:29:50;;;;;;;5.35;1.90;;;;;;;19.07;55.15;99926.06;5079947;28;20040;-85
2022/05/16 06:32:15;;;;;;;5.38;1.92;;;;;;;19.14;55.09;99925.00;5081585;28;20025;-85
2022/05/16 06:34:41;;;;;;;3.47;1.70;;;;;;;19.19;54.24;99927.69;5082453;28;20063;-85
2022/05/16 06:37:06;;;;;;;;;;;;;;;19.11;54.52;99925.53;5082162;28;20043;-84
2022/05/16 06:39:31;;;;;;;6.07;1.87;;;;;;;19.19;53.76;99924.97;5080430;28;19916;-84
2022/05/16 06:41:58;;;;;;;3.60;1.85;;;;;;;19.19;54.02;99922.22;5080743;28;20035;-84
2022/05/16 06:44:26;;;;;;;3.97;1.67;;;;;;;19.20;54.05;99926.59;5079613;28;20032;-85
2022/05/16 06:46:52;;;;;;;3.65;1.80;;;;;;;19.24;54.28;99927.69;5081858;28;20462;-85
2022/05/16 06:49:19;;;;;;;5.65;2.20;;;;;;;19.40;54.32;99932.06;5083325;28;20123;-85
2022/05/16 06:51:44;;;;;;;4.30;1.80;;;;;;;19.77;53.47;99921.63;5088715;28;20032;-85
2022/05/16 06:54:09;;;;;;;3.63;1.50;;;;;;;19.82;53.05;99930.94;5092999;28;20050;-85
2022/05/16 06:56:35;;;;;;;;;;;;;;;19.73;52.87;99928.75;5084946;28;20082;-85
2022/05/16 06:59:00;;;;;;;4.10;1.98;;;;;;;19.82;53.38;99939.94;5084023;28;19974;-85
2022/05/16 07:01:25;;;;;;;;;;;;;;;19.86;52.81;99941.03;5082750;28;20086;-85
2022/05/16 07:03:51;;;;;;;4.25;2.00;;;;;;;19.83;53.74;99943.50;5081923;28;20362;-85
2022/05/16 07:06:16;;;;;;;3.42;1.45;;;;;;;19.89;52.61;99947.84;5084397;28;20033;-85
2022/05/16 07:08:43;;;;;;;;;;;;;;;19.88;53.32;99959.91;5083929;28;20036;-85
2022/05/16 07:11:10;;;;;;;6.20;2.75;;;;;;;20.06;52.62;99962.03;5089680;28;19984;-85
2022/05/16 07:13:40;;;;;;;4.13;1.63;;;;;;;20.29;51.91;99968.78;5075570;28;20036;-85
2022/05/16 07:16:05;;;;;;;11.32;1.90;;;;;;;20.44;50.54;99977.75;5093418;28;20063;-84
2022/05/16 07:18:30;;;;;;;3.00;1.25;;;;;;;20.43;48.95;99980.78;5093331;28;20024;-86
2022/05/16 07:20:57;;;;;;;4.25;1.65;;;;;;;20.54;47.78;99979.66;5087315;28;20029;-85
2022/05/16 07:23:26;;;;;;;4.65;1.85;;;;;;;20.60;48.08;99986.72;5082652;28;20024;-84
2022/05/16 07:28:36;;;;;;;2.38;1.08;;;;;;;20.48;47.93;99990.88;5084067;28;20036;-87
2022/05/16 07:31:05;;;;;;;5.05;1.20;;;;;;;20.35;47.94;99984.09;5082657;28;20375;-87
2022/05/16 07:33:32;;;;;;;4.47;1.33;;;;;;;20.35;48.05;99990.38;5083412;28;20024;-85
2022/05/16 07:35:57;;;;;;;5.70;1.20;;;;;;;20.58;47.64;100001.81;5082366;28;20029;-84
2022/05/16 07:38:28;;;;;;;3.45;1.25;;;;;;;20.49;47.62;100007.03;5083195;28;20448;-86
2022/05/16 07:40:55;;;;;;;3.90;1.15;;;;;;;20.41;47.92;100002.97;5083129;28;20035;-86
2022/05/16 07:43:21;;;;;;;3.35;1.50;;;;;;;20.48;47.97;100007.31;5082742;28;20119;-85
2022/05/16 07:45:48;;;;;;;3.50;1.33;;;;;;;20.44;48.23;100018.00;5084335;28;20051;-86
2022/05/16 07:48:14;;;;;;;3.10;1.55;;;;;;;20.49;48.21;100017.16;5081294;28;20032;-85
2022/05/16 07:50:40;;;;;;;9.13;4.10;;;;;;;20.48;48.99;100023.75;5081922;28;20029;-86
2022/05/16 07:53:11;;;;;;;5.30;1.50;;;;;;;20.43;49.31;100024.56;5065882;28;20111;-85
2022/05/16 07:55:39;;;;;;;3.17;1.30;;;;;;;20.40;49.42;100028.72;5082937;28;20032;-85
2022/05/16 07:58:05;;;;;;;5.20;1.50;;;;;;;20.40;49.87;100027.88;5083586;28;20059;-85
2022/05/16 08:00:32;;;;;;;3.88;1.40;;;;;;;20.48;50.10;100027.28;5082475;28;20033;-86
2022/05/16 08:02:58;;;;;;;4.60;1.60;;;;;;;20.53;50.04;100030.03;5082995;28;20025;-86
2022/05/16 08:05:23;;;;;;;3.72;1.40;;;;;;;20.59;49.79;100030.81;5081126;28;20045;-86
2022/05/16 08:10:36;;;;;;;3.22;1.52;;;;;;;20.60;49.76;100030.53;5096971;28;20133;-85
2022/05/16 08:13:06;;;;;;;3.42;1.58;;;;;;;20.59;49.30;100037.13;5103347;28;20048;-87
2022/05/16 08:15:39;;;;;;;5.35;1.67;;;;;;;20.74;48.84;100039.78;5085871;28;20039;-85
2022/05/16 08:18:09;;;;;;;2.90;1.30;;;;;;;20.78;49.08;100037.31;5084215;28;20097;-84
2022/05/16 08:20:43;;;;;;;2.80;1.30;;;;;;;20.45;49.69;100039.63;5085825;28;20028;-85
2022/05/16 08:23:16;;;;;;;3.95;1.67;;;;;;;20.37;50.78;100034.72;5103956;28;20084;-85
2022/05/16 08:25:44;;;;;;;4.10;1.20;;;;;;;20.47;50.16;100031.13;5103556;28;20028;-85
2022/05/16 08:28:12;;;;;;;3.55;1.50;;;;;;;20.33;53.12;100041.81;5102525;28;20028;-84
2022/05/16 08:30:38;;;;;;;4.20;1.15;;;;;;;19.79;54.81;100040.84;5085110;28;20169;-83
2022/05/16 08:33:04;;;;;;;3.75;1.33;;;;;;;19.49;56.85;100053.38;5103047;28;20444;-80
2022/05/16 08:35:30;;;;;;;4.05;1.58;;;;;;;19.19;58.45;100048.69;5102137;28;20028;-81
2022/05/16 08:40:55;;;;;;;14.70;3.42;;;;;;;18.93;60.71;100052.47;5104695;28;20450;-84
2022/05/16 08:43:36;;;;;;;5.15;2.40;;;;;;;18.88;60.98;100049.72;5106705;28;20042;-84
2022/05/16 08:46:09;;;;;;;2.92;1.40;;;;;;;18.81;60.04;100047.22;5086878;28;20051;-83
2022/05/16 08:48:43;;;;;;;6.05;1.90;;;;;;;18.77;62.17;100051.59;5087634;28;20047;-84
2022/05/16 08:51:18;;;;;;;5.78;1.75;;;;;;;18.80;60.67;100048.34;5106049;28;20043;-85
2022/05/16 08:53:49;;;;;;;5.63;1.75;;;;;;;18.91;60.21;100058.19;5087272;28;20071;-85
2022/05/16 08:56:28;;;;;;;6.40;1.90;;;;;;;18.81;60.95;100047.22;5087110;28;20081;-85
2022/05/16 08:59:14;;;;;;;5.45;1.83;;;;;;;18.74;62.08;100052.13;5106581;28;20080;-85
2022/05/16 09:01:53;;;;;;;4.30;1.70;;;;;;;18.73;61.92;100040.41;5106346;28;20035;-86
2022/05/16 09:04:51;;;;;;;2.78;1.30;;;;;;;18.73;61.50;100045.03;5105906;28;20020;-85
2022/05/16 09:07:47;;;;;;;2.85;1.17;;;;;;;18.78;60.79;100041.50;5102330;28;20479;-87
2022/05/16 09:10:41;;;;;;;4.50;1.40;;;;;;;18.70;61.80;100040.09;5105659;28;20056;-86
2022/05/16 09:13:28;;;;;;;5.63;1.77;;;;;;;18.82;60.96;100045.31;5041135;28;20040;-83
2022/05/16 09:16:04;;;;;;;3.42;1.38;;;;;;;18.76;62.14;100040.97;5087368;28;20028;-84
2022/05/16 09:19:03;;;;;;;6.45;2.03;;;;;;;18.87;61.24;100046.16;5087594;28;20028;-85
2022/05/16 09:21:52;;;;;;;3.85;1.75;;;;;;;18.95;60.96;100045.66;5087574;28;20032;-85
2022/05/16 09:24:28;;;;;;;4.25;1.70;;;;;;;18.86;62.05;100060.91;5104896;28;20035;-86
2022/05/16 09:27:02;;;;;;;3.47;1.30;;;;;;;19.02;60.61;100064.50;5106508;28;20024;-85
2022/05/16 09:29:32;;;;;;;5.43;2.13;;;;;;;18.99;61.49;100065.03;5085870;28;20039;-85
2022/05/16 09:32:08;;;;;;;3.33;1.40;;;;;;;18.97;61.00;100059.88;5106720;28;20027;-87
2022/05/16 09:34:36;;;;;;;;;;;;;;;19.18;60.46;100057.97;5106953;28;20028;-85
2022/05/16 09:37:01;;;;;;;3.42;1.50;;;;;;;19.45;59.05;100065.94;5105333;28;19908;-86
2022/05/16 09:39:35;;;;;;;5.93;2.05;;;;;;;19.62;58.97;100063.81;5070605;28;20046;-85
2022/05/16 09:42:26;;;;;;;3.90;1.50;;;;;;;19.97;57.80;100071.16;5104643;28;20073;-85
2022/05/16 09:44:54;;;;;;;4.40;1.38;;;;;;;20.22;56.31;100077.69;5093497;28;20111;-85
2022/05/16 09:47:32;;;;;;;2.78;1.33;;;;;;;20.34;56.78;100081.78;5105388;28;20036;-85
2022/05/16 09:50:21;;;;;;;7.40;1.80;;;;;;;20.71;56.07;100073.19;5103634;28;20498;-84
2022/05/16 09:53:09;;;;;;;3.58;1.30;;;;;;;20.96;54.21;100068.72;5099111;28;20028;-85
2022/05/16 09:55:41;;;;;;;5.45;2.10;;;;;;;21.26;54.54;100067.75;5096950;28;20036;-85
2022/05/16 09:58:22;;;;;;;3.53;1.30;;;;;;;21.35;53.91;100068.75;5085611;28;20089;-87
2022/05/16 10:00:59;;;;;;;5.28;1.50;;;;;;;21.24;54.26;100075.41;5087574;28;20043;-86
2022/05/16 10:03:30;;;;;;;3.78;1.38;;;;;;;21.65;51.86;100067.72;5086127;28;20615;-85
2022/05/16 10:05:59;;;;;;;4.85;1.98;;;;;;;21.78;53.01;100065.13;5086107;28;20459;-86
2022/05/16 10:08:39;;;;;;;5.30;1.58;;;;;;;21.98;52.92;100066.88;5105073;28;20038;-86
2022/05/16 10:11:24;;;;;;;4.15;1.40;;;;;;;22.14;53.06;100065.66;5106250;28;20056;-87
2022/05/16 10:13:50;;;;;;;2.83;1.27;;;;;;;22.09;51.97;100070.38;5087862;28;20050;-87
2022/05/16 10:16:15;;;;;;;4.97;1.58;;;;;;;21.99;53.33;100065.78;5105356;28;20057;-82
2022/05/16 10:18:49;;;;;;;4.25;1.40;;;;;;;22.10;52.50;100070.06;5108471;28;20032;-82
2022/05/16 10:21:28;;;;;;;3.42;1.30;;;;;;;22.10;52.51;100067.34;5105139;28;20057;-81
2022/05/16 10:23:53;;;;;;;3.55;1.40;;;;;;;22.14;51.88;100062.09;5090458;28;20032;-81
2022/05/16 10:26:23;;;;;;;4.25;1.50;;;;;;;22.19;52.56;100067.53;5091277;28;20067;-81
2022/05/16 10:29:06;;;;;;;3.20;1.17;;;;;;;22.36;52.24;100072.56;5108246;28;20042;-81
2022/05/16 10:34:48;;;;;;;3.50;1.45;;;;;;;23.00;50.87;100074.81;5024265;28;20064;-81
2022/05/16 10:37:14;;;;;;;3.38;1.48;;;;;;;22.90;50.51;100082.41;5089653;28;20044;-81
2022/05/16 10:39:43;;;;;;;4.25;1.80;;;;;;;22.97;51.48;100086.41;5084967;28;20113;-82
2022/05/16 10:42:21;;;;;;;4.90;1.42;;;;;;;23.23;49.79;100083.31;5102934;28;20415;-81
2022/05/16 10:44:59;;;;;;;3.13;1.30;;;;;;;23.45;47.80;100089.03;5083356;28;20051;-82
2022/05/16 10:48:00;;;;;;;3.00;1.30;;;;;;;23.59;47.72;100080.88;5101574;28;20032;-81
2022/05/16 10:50:36;;;;;;;3.33;1.75;;;;;;;23.77;47.69;100083.59;5083678;28;20035;-82
2022/05/16 10:53:10;;;;;;;3.95;1.05;;;;;;;23.76;48.06;100081.97;5102137;28;20032;-81
2022/05/16 10:55:47;;;;;;;3.60;1.20;;;;;;;24.00;48.65;100087.34;5101868;28;20413;-82
2022/05/16 10:58:31;;;;;;;3.47;1.75;;;;;;;24.15;47.40;100086.25;5101479;28;20028;-82
2022/05/16 11:01:06;;;;;;;2.90;1.30;;;;;;;24.15;47.33;100089.00;5102025;28;20035;-80
2022/05/16 11:03:53;;;;;;;3.58;1.35;;;;;;;24.19;47.68;100090.81;5100255;28;20055;-80
2022/05/16 11:06:53;;;;;;;2.95;1.30;;;;;;;24.27;47.59;100086.59;5100518;28;20047;-81
2022/05/16 11:09:38;;;;;;;2.75;1.20;;;;;;;24.10;47.53;100089.91;5094815;28;20108;-80
2022/05/16 11:12:16;;;;;;;3.83;1.50;;;;;;;24.12;47.97;100086.84;5101444;28;20035;-80
2022/05/16 11:15:00;;;;;;;3.92;1.20;;;;;;;24.30;47.88;100088.75;5100403;28;20386;-80
2022/05/16 11:17:49;;;;;;;3.83;1.45;;;;;;;24.39;47.05;100080.59;5081808;28;20050;-79
2022/05/16 11:20:42;;;;;;;3.78;1.48;;;;;;;24.71;46.13;100076.94;5100232;28;20028;-80
2022/05/16 11:23:14;;;;;;;2.28;1.20;;;;;;;24.85;45.92;100075.78;5103011;28;20044;-81
2022/05/16 11:25:48;;;;;;;2.72;1.20;;;;;;;24.86;46.45;100073.84;5102202;28;20074;-80
2022/05/16 11:28:18;;;;;;;3.35;1.42;;;;;;;25.24;45.58;100069.72;5084050;28;20443;-81
2022/05/16 11:30:53;;;;;;;2.60;1.15;;;;;;;25.24;44.70;100061.47;5101956;28;20047;-81
2022/05/16 11:33:37;;;;;;;3.97;1.50;;;;;;;25.33;44.49;100067.03;5083465;28;20032;-82
2022/05/16 11:36:24;;;;;;;3.40;1.15;;;;;;;25.18;45.27;100056.34;5101157;28;20039;-81
2022/05/16 11:39:08;;;;;;;2.90;1.10;;;;;;;25.40;44.48;100056.41;5102105;28;20056;-80
2022/05/16 11:41:45;;;;;;;3.38;1.25;;;;;;;25.60;42.24;100055.09;5100567;28;20028;-81
2022/05/16 11:44:31;;;;;;;3.10;1.23;;;;;;;25.89;42.59;100054.66;5101254;28;20459;-80
2022/05/16 11:47:18;;;;;;;3.28;1.15;;;;;;;26.06;42.75;100059.47;5081543;28;20020;-80
2022/05/16 11:50:05;;;;;;;3.08;1.10;;;;;;;26.17;41.76;100050.56;5101308;28;20040;-81
2022/05/16 11:52:50;;;;;;;2.92;1.10;;;;;;;25.96;41.01;100044.00;5083818;28;20031;-81
2022/05/16 12:01:04;;;;;;;3.25;1.52;;;;;;;26.18;41.38;100041.16;5100615;28;20035;-83
2022/05/16 12:03:40;;;;;;;3.92;1.30;;;;;;;26.44;41.33;100046.03;5100023;28;20383;-81
2022/05/16 12:06:13;;;;;;;;;;;;;;;26.52;40.81;100045.22;5100487;28;20032;-82
2022/05/16 12:08:42;;;;;;;3.80;1.05;;;;;;;26.46;41.77;100049.28;5101764;28;20265;-83
2022/05/16 12:11:18;;;;;;;3.47;1.00;;;;;;;26.31;40.57;100044.19;5080099;28;20060;-82
2022/05/16 12:14:05;;;;;;;6.43;2.47;;;;;;;26.11;40.94;100043.59;5080253;28;20093;-82
2022/05/16 12:16:42;;;;;;;3.78;1.65;;;;;;;25.56;42.30;100038.34;5084556;28;20029;-82
2022/05/16 12:19:23;;;;;;;4.47;1.73;;;;;;;25.52;42.84;100036.53;5083871;28;20032;-83
2022/05/16 12:21:56;;;;;;;7.07;2.35;;;;;;;25.44;42.78;100038.06;5086135;28;20115;-82
2022/05/16 12:24:31;;;;;;;4.25;1.52;;;;;;;25.15;44.37;100032.97;5085624;28;20070;-82